createdAt,value
2023-07-03T00:00:36.311Z,154758.22
2023-07-03T00:03:06.894Z,154766.00
2023-07-03T00:05:40.364Z,154750.41
2023-07-03T00:08:14.455Z,154741.34
2023-07-03T00:10:44.619Z,154742.63
2023-07-03T00:13:15.048Z,154724.41
2023-07-03T00:15:45.574Z,154712.72
2023-07-03T00:18:15.731Z,154698.41
2023-07-03T00:20:45.882Z,154698.41
2023-07-03T00:23:18.737Z,154673.69
2023-07-03T00:25:49.184Z,154658.09
2023-07-03T00:28:19.582Z,154668.50
2023-07-03T00:30:50.011Z,154652.91
2023-07-03T00:33:20.263Z,154664.56
2023-07-03T00:35:50.600Z,154645.06
2023-07-03T00:38:25.529Z,154625.56
2023-07-03T00:40:55.642Z,154608.69
2023-07-03T00:43:25.966Z,154580.00
2023-07-03T00:45:56.293Z,154586.50
2023-07-03T00:48:26.528Z,154559.22
2023-07-03T00:50:56.605Z,154559.22
2023-07-03T00:53:29.798Z,154538.44
2023-07-03T00:56:00.151Z,154563.13
2023-07-03T00:58:31.262Z,154552.72
2023-07-03T01:01:07.498Z,154550.09
2023-07-03T01:03:44.906Z,154565.69
2023-07-03T01:06:20.935Z,154569.63
2023-07-03T01:09:00.749Z,154550.09
2023-07-03T01:11:31.648Z,154554.03
2023-07-03T01:14:05.459Z,154557.94
2023-07-03T01:16:38.428Z,154546.19
2023-07-03T01:19:15.424Z,154548.81
2023-07-03T01:21:53.348Z,154583.91
2023-07-03T01:24:34.962Z,154578.72
2023-07-03T01:27:07.782Z,154574.81
2023-07-03T01:29:38.865Z,154578.72
2023-07-03T01:32:11.531Z,154590.41
2023-07-03T01:34:47.011Z,154582.63
2023-07-03T01:37:18.645Z,154590.41
2023-07-03T01:39:53.128Z,154581.31
2023-07-03T01:42:25.336Z,154603.47
2023-07-03T01:44:55.530Z,154615.16
2023-07-03T01:47:25.759Z,154625.56
2023-07-03T01:49:56.037Z,154643.78
2023-07-03T01:52:31.911Z,154664.56
2023-07-03T01:55:09.798Z,154698.41
2023-07-03T01:57:48.116Z,154723.13
2023-07-03T02:00:32.836Z,154733.50
2023-07-03T02:03:07.501Z,154740.00
2023-07-03T02:05:43.209Z,154753.03
2023-07-03T02:08:14.637Z,154790.72
2023-07-03T02:10:47.512Z,154773.84
2023-07-03T02:13:18.572Z,154797.25
2023-07-03T02:15:49.362Z,154792.06
2023-07-03T02:18:22.275Z,154797.25
2023-07-03T02:20:53.455Z,154782.94
2023-07-03T02:23:23.524Z,154784.22
2023-07-03T02:25:56.349Z,154772.53
2023-07-03T02:28:29.821Z,154758.22
2023-07-03T02:31:00.975Z,154750.41
2023-07-03T02:33:31.196Z,154763.44
2023-07-03T02:36:01.272Z,154734.81
2023-07-03T02:38:31.344Z,154725.69
2023-07-03T02:41:06.099Z,154702.31
2023-07-03T02:43:36.201Z,154686.72
2023-07-03T02:46:10.694Z,154655.47
2023-07-03T02:48:41.057Z,154630.75
2023-07-03T02:51:12.088Z,154589.13
2023-07-03T02:53:42.198Z,154572.19
2023-07-03T02:56:18.454Z,154518.91
2023-07-03T02:58:51.269Z,154498.13
2023-07-03T03:01:27.744Z,154470.81
2023-07-03T03:03:59.935Z,154450.03
2023-07-03T03:06:30.643Z,154396.72
2023-07-03T03:09:00.719Z,154386.34
2023-07-03T03:11:36.524Z,154374.66
2023-07-03T03:14:07.616Z,154382.44
2023-07-03T03:16:38.527Z,154382.44
2023-07-03T03:19:08.702Z,154391.53
2023-07-03T03:21:39.555Z,154395.44
2023-07-03T03:24:10.768Z,154400.63
2023-07-03T03:26:43.480Z,154413.66
2023-07-03T03:29:13.773Z,154437.00
2023-07-03T03:31:44.770Z,154466.91
2023-07-03T03:34:15.898Z,154457.78
2023-07-03T03:36:46.760Z,154503.31
2023-07-03T03:39:16.966Z,154522.84
2023-07-03T03:41:49.776Z,154516.28
2023-07-03T03:44:19.888Z,154516.28
2023-07-03T03:46:51.032Z,154521.50
2023-07-03T03:49:21.138Z,154509.81
2023-07-03T03:51:52.341Z,154525.41
2023-07-03T03:54:23.110Z,154537.09
2023-07-03T03:56:56.146Z,154548.81
2023-07-03T03:59:26.472Z,154569.63
2023-07-03T04:01:56.785Z,154594.38
2023-07-03T04:04:26.987Z,154637.28
2023-07-03T04:06:57.125Z,154681.47
2023-07-03T04:09:27.305Z,154717.91
2023-07-03T04:12:00.104Z,154753.03
2023-07-03T04:14:30.276Z,154802.47
2023-07-03T04:17:01.916Z,154866.28
2023-07-03T04:19:33.022Z,154935.25
2023-07-03T04:22:03.131Z,154984.66
2023-07-03T04:24:33.286Z,155035.44
2023-07-03T04:27:06.537Z,155090.13
2023-07-03T04:29:36.768Z,155153.91
2023-07-03T04:32:07.433Z,155209.94
2023-07-03T04:34:37.712Z,155285.47
2023-07-03T04:37:09.863Z,155311.50
2023-07-03T04:39:40.146Z,155377.97
2023-07-03T04:42:14.965Z,155361.06
2023-07-03T04:44:45.286Z,155428.84
2023-07-03T04:47:17.213Z,155418.41
2023-07-03T04:49:47.554Z,155417.06
2023-07-03T04:52:19.679Z,155479.63
2023-07-03T04:54:49.810Z,155539.59
2023-07-03T04:57:22.485Z,155569.59
2023-07-03T04:59:52.935Z,155667.38
2023-07-03T05:02:23.137Z,155659.53
2023-07-03T05:04:53.296Z,155639.97
2023-07-03T05:07:23.878Z,155693.44
2023-07-03T05:09:55.019Z,155714.28
2023-07-03T05:12:27.770Z,155736.44
2023-07-03T05:14:58.385Z,155683.03
2023-07-03T05:17:28.763Z,155728.66
2023-07-03T05:19:59.574Z,155783.47
2023-07-03T05:22:29.716Z,155771.75
2023-07-03T05:25:01.497Z,155810.81
2023-07-03T05:27:34.426Z,155921.72
2023-07-03T05:30:04.791Z,155916.50
2023-07-03T05:32:35.311Z,155846.03
2023-07-03T05:35:06.793Z,155966.06
2023-07-03T05:37:37.995Z,155946.50
2023-07-03T05:40:10.615Z,155962.16
2023-07-03T05:42:43.381Z,156057.44
2023-07-03T05:45:14.854Z,155975.22
2023-07-03T05:47:45.089Z,156006.56
2023-07-03T05:50:15.327Z,156030.00
2023-07-03T05:52:45.757Z,156105.72
2023-07-03T05:55:15.949Z,156159.19
2023-07-03T05:57:48.701Z,156204.94
2023-07-03T06:00:19.916Z,156177.53
2023-07-03T06:02:53.346Z,156267.59
2023-07-03T06:05:24.118Z,156216.72
2023-07-03T06:07:54.323Z,156312.00
2023-07-03T06:10:25.048Z,156334.16
2023-07-03T06:12:57.778Z,156313.28
2023-07-03T06:15:28.796Z,156386.47
2023-07-03T06:17:59.850Z,156387.75
2023-07-03T06:20:30.128Z,156553.66
2023-07-03T06:23:00.428Z,156524.91
2023-07-03T06:25:30.571Z,156531.44
2023-07-03T06:28:03.674Z,156558.88
2023-07-03T06:30:35.869Z,156490.94
2023-07-03T06:33:06.215Z,156429.53
2023-07-03T06:35:36.403Z,156528.81
2023-07-03T06:38:06.564Z,156479.16
2023-07-03T06:40:36.780Z,156521.00
2023-07-03T06:43:09.571Z,156705.25
2023-07-03T06:45:41.103Z,156736.66
2023-07-03T06:48:11.863Z,156852.97
2023-07-03T06:50:42.030Z,156947.13
2023-07-03T06:53:12.243Z,156923.59
2023-07-03T06:55:42.368Z,156936.69
2023-07-03T06:58:15.108Z,156875.19
2023-07-03T07:00:45.846Z,156924.94
2023-07-03T07:03:16.044Z,157072.66
2023-07-03T07:05:47.137Z,156851.66
2023-07-03T07:08:18.171Z,157049.09
2023-07-03T07:10:48.772Z,157076.63
2023-07-03T07:13:21.461Z,156971.97
2023-07-03T07:15:52.288Z,156880.44
2023-07-03T07:18:22.827Z,156982.44
2023-07-03T07:20:55.696Z,157025.59
2023-07-03T07:23:25.932Z,157045.22
2023-07-03T07:25:58.698Z,156985.06
2023-07-03T07:28:31.998Z,157046.50
2023-07-03T07:31:02.101Z,157241.44
2023-07-03T07:33:32.417Z,157304.31
2023-07-03T07:36:02.600Z,157202.19
2023-07-03T07:38:32.674Z,157157.72
2023-07-03T07:41:06.816Z,157155.13
2023-07-03T07:43:39.575Z,157296.44
2023-07-03T07:46:09.847Z,157372.31
2023-07-03T07:48:40.633Z,157326.53
2023-07-03T07:51:12.225Z,157234.91
2023-07-03T07:53:42.589Z,157229.69
2023-07-03T07:56:14.941Z,157242.78
2023-07-03T07:58:47.745Z,157322.59
2023-07-03T08:01:18.630Z,157329.19
2023-07-03T08:03:49.253Z,157365.78
2023-07-03T08:06:19.850Z,157172.09
2023-07-03T08:08:50.018Z,157254.59
2023-07-03T08:11:20.296Z,157321.31
2023-07-03T08:13:53.193Z,157376.25
2023-07-03T08:16:23.424Z,157403.72
2023-07-03T08:18:53.634Z,157364.50
2023-07-03T08:21:24.136Z,157335.69
2023-07-03T08:23:54.315Z,157409.00
2023-07-03T08:26:26.850Z,157479.72
2023-07-03T08:28:59.592Z,157467.91
2023-07-03T08:31:29.734Z,157419.50
2023-07-03T08:33:59.887Z,157320.00
2023-07-03T08:39:03.326Z,157558.22
2023-07-03T08:41:34.248Z,157494.06
2023-07-03T08:44:07.327Z,157348.75
2023-07-03T08:46:38.322Z,157466.59
2023-07-03T08:49:10.615Z,157313.44
2023-07-03T08:51:42.781Z,157419.50
2023-07-03T08:54:19.025Z,157453.50
2023-07-03T08:56:50.815Z,157342.22
2023-07-03T08:59:23.567Z,157398.50
2023-07-03T09:02:00.568Z,157479.72
2023-07-03T09:04:47.451Z,157441.75
2023-07-03T09:07:22.777Z,157329.19
2023-07-03T09:10:01.325Z,157409.00
2023-07-03T09:12:37.879Z,157339.63
2023-07-03T09:15:19.016Z,157525.53
2023-07-03T09:17:50.338Z,157448.28
2023-07-03T09:20:20.712Z,157530.75
2023-07-03T09:22:55.122Z,157642.06
2023-07-03T09:25:34.755Z,157573.97
2023-07-03T09:28:07.072Z,157516.34
2023-07-03T09:30:40.410Z,157655.19
2023-07-03T09:33:11.032Z,157580.56
2023-07-03T09:35:43.980Z,157545.16
2023-07-03T09:38:15.207Z,157622.44
2023-07-03T09:40:47.074Z,157543.81
2023-07-03T09:43:19.435Z,157395.91
2023-07-03T09:45:53.551Z,157372.31
2023-07-03T09:48:28.529Z,157735.09
2023-07-03T09:51:07.347Z,157687.88
2023-07-03T09:53:43.316Z,157818.88
2023-07-03T09:56:18.559Z,157571.38
2023-07-03T09:58:50.751Z,157648.59
2023-07-03T10:06:43.931Z,157774.34
2023-07-03T10:12:04.492Z,157746.88
2023-07-03T10:14:40.824Z,157816.28
2023-07-03T10:17:17.450Z,157870.00
2023-07-03T10:20:01.223Z,157799.22
2023-07-03T10:22:31.610Z,157703.59
2023-07-03T10:25:07.183Z,157741.63
2023-07-03T10:27:39.848Z,157807.13
2023-07-03T10:30:16.672Z,157676.13
2023-07-03T10:32:53.163Z,157712.75
2023-07-03T10:35:29.045Z,157690.53
2023-07-03T10:38:06.611Z,157699.69
2023-07-03T10:40:42.761Z,157636.84
2023-07-03T10:43:16.769Z,157643.38
2023-07-03T10:45:48.860Z,157846.41
2023-07-03T10:48:24.879Z,157693.13
2023-07-03T10:51:02.713Z,157939.44
2023-07-03T10:53:41.633Z,157858.19
2023-07-03T10:56:20.487Z,157849.00
2023-07-03T10:58:59.108Z,157909.31
2023-07-03T11:01:35.612Z,158036.47
2023-07-03T11:04:24.869Z,157894.94
2023-07-03T11:07:07.395Z,158063.97
2023-07-03T11:09:47.135Z,158098.03
2023-07-03T11:12:25.722Z,158073.16
2023-07-03T11:15:06.793Z,158187.22
2023-07-03T11:20:28.448Z,158132.13
2023-07-03T11:23:05.397Z,157973.50
2023-07-03T11:28:38.432Z,157913.25
2023-07-03T11:31:10.983Z,157923.72
2023-07-03T11:36:51.551Z,157963.03
2023-07-03T11:44:51.696Z,157956.50
2023-07-03T11:47:27.076Z,157860.81
2023-07-03T11:50:01.953Z,158010.22
2023-07-03T11:52:39.584Z,158039.06
2023-07-03T11:55:15.509Z,157805.81
2023-07-03T11:58:04.490Z,157850.34
2023-07-03T12:00:44.281Z,158060.06
2023-07-03T12:03:15.832Z,157858.19
2023-07-03T12:05:58.353Z,157774.34
2023-07-03T12:08:49.502Z,157681.34
2023-07-03T12:11:21.746Z,157580.56
2023-07-03T12:13:56.984Z,157623.72
2023-07-03T12:16:33.969Z,157765.22
2023-07-03T12:19:12.503Z,157896.25
2023-07-03T12:21:49.237Z,158067.91
2023-07-03T12:24:31.285Z,158002.34
2023-07-03T12:27:04.848Z,157961.75
2023-07-03T12:29:36.891Z,157921.13
2023-07-03T12:32:09.964Z,158071.84
2023-07-03T12:34:42.017Z,157847.72
2023-07-03T12:37:16.711Z,157972.22
2023-07-03T12:39:50.458Z,158003.63
2023-07-03T12:42:25.307Z,158188.53
2023-07-03T12:44:57.150Z,158116.41
2023-07-03T12:47:27.292Z,158029.94
2023-07-03T12:50:01.297Z,158056.13
2023-07-03T12:52:33.417Z,157737.69
2023-07-03T12:55:14.604Z,158027.28
2023-07-03T12:57:46.561Z,157887.06
2023-07-03T13:00:28.589Z,157999.75
2023-07-03T13:03:01.616Z,157863.41
2023-07-03T13:05:35.792Z,158066.59
2023-07-03T13:08:08.295Z,158105.94
2023-07-03T13:10:41.262Z,158108.53
2023-07-03T13:13:13.739Z,158103.28
2023-07-03T13:15:51.298Z,158090.22
2023-07-03T13:18:24.308Z,158147.84
2023-07-03T13:21:00.967Z,158174.09
2023-07-03T13:23:38.205Z,158221.31
2023-07-03T13:26:32.547Z,158250.09
2023-07-03T13:29:07.902Z,157981.41
2023-07-03T13:31:51.295Z,158105.94
2023-07-03T13:34:30.440Z,158140.00
2023-07-03T13:37:10.617Z,157995.81
2023-07-03T13:40:00.022Z,157935.53
2023-07-03T13:42:38.503Z,157902.78
2023-07-03T13:45:18.452Z,157786.16
2023-07-03T13:47:49.802Z,157938.16
2023-07-03T13:50:20.926Z,157775.69
2023-07-03T13:52:56.543Z,157701.00
2023-07-03T13:55:29.117Z,157746.88
2023-07-03T13:58:04.721Z,157676.13
2023-07-03T14:00:35.493Z,157642.06
2023-07-03T14:03:05.838Z,157752.09
2023-07-03T14:05:36.648Z,157760.00
2023-07-03T14:08:07.088Z,157680.06
2023-07-03T14:10:40.828Z,157760.00
2023-07-03T14:13:16.254Z,157605.41
2023-07-03T14:15:47.749Z,157693.13
2023-07-03T14:18:20.893Z,157593.63
2023-07-03T14:20:55.623Z,157719.31
2023-07-03T14:23:28.316Z,157719.31
2023-07-03T14:26:00.348Z,157689.19
2023-07-03T14:28:33.197Z,157775.69
2023-07-03T14:31:03.594Z,157787.47
2023-07-03T14:33:34.776Z,157801.88
2023-07-03T14:36:05.081Z,157597.53
2023-07-03T14:38:35.647Z,157682.66
2023-07-03T14:41:07.716Z,157677.41
2023-07-03T14:43:41.205Z,157722.00
2023-07-03T14:46:12.672Z,157847.72
2023-07-03T14:48:43.569Z,157841.19
2023-07-03T14:51:15.812Z,157731.16
2023-07-03T14:53:46.587Z,157597.53
2023-07-03T14:56:18.064Z,157615.88
2023-07-03T14:58:51.228Z,157638.13
2023-07-03T15:01:25.049Z,157555.63
2023-07-03T15:03:58.481Z,157567.44
2023-07-03T15:06:29.990Z,157566.16
2023-07-03T15:09:00.045Z,157500.66
2023-07-03T15:11:31.449Z,157515.06
2023-07-03T15:14:05.100Z,157518.94
2023-07-03T15:16:37.513Z,157535.97
2023-07-03T15:19:10.107Z,157581.84
2023-07-03T15:21:44.374Z,157588.38
2023-07-03T15:24:14.620Z,157566.16
2023-07-03T15:26:46.267Z,157725.94
2023-07-03T15:29:19.306Z,157727.22
2023-07-03T15:31:52.091Z,157636.84
2023-07-03T15:34:26.545Z,157608.03
2023-07-03T15:37:00.380Z,157529.47
2023-07-03T15:39:40.681Z,157484.94
2023-07-03T15:42:10.977Z,157490.19
2023-07-03T15:44:43.798Z,157487.53
2023-07-03T15:47:14.519Z,157500.66
2023-07-03T15:49:44.636Z,157539.91
2023-07-03T15:52:14.732Z,157431.28
2023-07-03T15:54:44.874Z,157534.69
2023-07-03T15:57:14.968Z,157572.66
2023-07-03T15:59:47.874Z,157575.31
2023-07-03T16:02:17.845Z,157545.16
2023-07-03T16:04:48.032Z,157503.25
2023-07-03T16:07:18.384Z,157499.34
2023-07-03T16:09:48.519Z,157424.75
2023-07-03T16:12:18.669Z,157330.47
2023-07-03T16:14:52.781Z,157368.38
2023-07-03T16:17:22.995Z,157363.16
2023-07-03T16:20:07.854Z,157317.38
2023-07-03T16:22:40.800Z,157250.66
2023-07-03T16:25:11.987Z,157236.22
2023-07-03T16:27:42.099Z,157210.06
2023-07-03T16:30:15.442Z,157199.59
2023-07-03T16:32:47.243Z,157182.56
2023-07-03T16:35:17.656Z,157193.03
2023-07-03T16:37:48.106Z,157174.75
2023-07-03T16:40:18.742Z,157189.09
2023-07-03T16:42:50.291Z,157176.03
2023-07-03T16:45:26.155Z,157145.97
2023-07-03T16:47:57.477Z,157178.63
2023-07-03T16:50:27.680Z,157176.03
2023-07-03T16:52:57.782Z,157203.50
2023-07-03T16:55:28.100Z,157221.81
2023-07-03T16:57:58.209Z,157251.97
2023-07-03T17:00:31.862Z,157221.81
2023-07-03T17:03:02.236Z,157200.91
2023-07-03T17:05:32.754Z,157200.91
2023-07-03T17:08:03.005Z,157173.41
2023-07-03T17:10:33.786Z,157166.88
2023-07-03T17:13:03.968Z,157160.34
2023-07-03T17:15:37.007Z,157183.88
2023-07-03T17:18:07.014Z,157139.44
2023-07-03T17:20:37.183Z,157182.56
2023-07-03T17:23:07.453Z,157152.47
2023-07-03T17:25:37.717Z,157135.50
2023-07-03T17:28:08.456Z,157148.56
2023-07-03T17:30:41.984Z,157097.56
2023-07-03T17:33:12.521Z,157045.22
2023-07-03T17:35:44.416Z,156998.13
2023-07-03T17:38:14.935Z,157013.81
2023-07-03T17:40:48.037Z,156915.78
2023-07-03T17:43:22.898Z,156892.19
2023-07-03T17:45:56.355Z,156884.38
2023-07-03T17:48:27.479Z,156889.59
2023-07-03T17:50:57.562Z,156898.69
2023-07-03T17:53:27.837Z,156851.66
2023-07-03T17:55:57.981Z,156811.16
2023-07-03T17:58:28.203Z,156809.84
2023-07-03T18:01:02.764Z,156771.94
2023-07-03T18:03:34.186Z,156731.44
2023-07-03T18:06:04.687Z,156741.88
2023-07-03T18:08:35.095Z,156693.47
2023-07-03T18:11:05.354Z,156697.41
2023-07-03T18:13:35.841Z,156675.19
2023-07-03T18:16:08.637Z,156684.31
2023-07-03T18:18:38.914Z,156668.63
2023-07-03T18:21:09.046Z,156664.75
2023-07-03T18:23:39.206Z,156637.28
2023-07-03T18:26:09.546Z,156634.69
2023-07-03T18:28:39.651Z,156632.06
2023-07-03T18:31:12.543Z,156578.50
2023-07-03T18:33:42.723Z,156588.94
2023-07-03T18:36:12.920Z,156561.53
2023-07-03T18:38:43.150Z,156545.88
2023-07-03T18:41:25.422Z,156537.94
2023-07-03T18:44:00.952Z,156517.06
2023-07-03T18:46:41.320Z,156518.34
2023-07-03T18:49:18.224Z,156498.75
2023-07-03T18:51:55.818Z,156509.19
2023-07-03T18:54:29.123Z,156481.81
2023-07-03T18:57:06.625Z,156464.84
2023-07-03T18:59:45.901Z,156453.06
2023-07-03T19:02:29.687Z,156458.28
2023-07-03T19:04:59.910Z,156466.13
2023-07-03T19:07:35.080Z,156464.84
2023-07-03T19:10:18.458Z,156447.84
2023-07-03T19:13:02.974Z,156420.44
2023-07-03T19:15:35.029Z,156415.22
2023-07-03T19:18:07.905Z,156407.34
2023-07-03T19:20:38.732Z,156411.28
2023-07-03T19:23:08.869Z,156407.34
2023-07-03T19:25:38.998Z,156415.22
2023-07-03T19:28:09.317Z,156404.72
2023-07-03T19:30:39.887Z,156385.19
2023-07-03T19:33:16.111Z,156378.63
2023-07-03T19:35:46.238Z,156349.81
2023-07-03T19:38:17.282Z,156352.47
2023-07-03T19:40:47.713Z,156360.38
2023-07-03T19:43:18.472Z,156347.25
2023-07-03T19:45:49.266Z,156360.38
2023-07-03T19:48:22.192Z,156334.16
2023-07-03T19:50:52.438Z,156344.59
2023-07-03T19:53:22.560Z,156339.38
2023-07-03T19:55:52.908Z,156340.72
2023-07-03T19:58:25.898Z,156328.94
2023-07-03T20:00:57.076Z,156318.50
2023-07-03T20:03:30.156Z,156305.47
2023-07-03T20:06:00.626Z,156319.81
2023-07-03T20:08:32.584Z,156288.47
2023-07-03T20:11:03.662Z,156296.34
2023-07-03T20:13:33.948Z,156275.47
2023-07-03T20:16:05.709Z,156263.69
2023-07-03T20:18:39.872Z,156249.31
2023-07-03T20:21:11.256Z,156229.72
2023-07-03T20:23:43.691Z,156233.66
2023-07-03T20:26:13.941Z,156251.94
2023-07-03T20:28:44.199Z,156232.38
2023-07-03T20:31:17.024Z,156236.28
2023-07-03T20:33:50.128Z,156221.94
2023-07-03T20:36:21.252Z,156227.16
2023-07-03T20:38:51.480Z,156231.06
2023-07-03T20:41:21.625Z,156214.06
2023-07-03T20:43:51.764Z,156207.56
2023-07-03T20:46:22.763Z,156189.28
2023-07-03T20:48:58.216Z,156186.69
2023-07-03T20:51:33.770Z,156186.69
2023-07-03T20:54:05.980Z,156172.31
2023-07-03T20:56:40.493Z,156169.69
2023-07-03T20:59:12.380Z,156161.84
2023-07-03T21:01:44.251Z,156156.63
2023-07-03T21:04:17.509Z,156159.19
2023-07-03T21:06:50.512Z,156153.97
2023-07-03T21:09:21.497Z,156153.97
2023-07-03T21:11:51.670Z,156151.41
2023-07-03T21:14:22.273Z,156152.69
2023-07-03T21:16:52.511Z,156139.63
2023-07-03T21:19:25.316Z,156143.53
2023-07-03T21:21:55.441Z,156123.97
2023-07-03T21:24:25.634Z,156104.38
2023-07-03T21:26:55.784Z,156099.16
2023-07-03T21:29:25.926Z,156101.81
2023-07-03T21:31:56.093Z,156103.09
2023-07-03T21:34:28.932Z,156109.59
2023-07-03T21:36:59.139Z,156118.75
2023-07-03T21:39:29.307Z,156123.97
2023-07-03T21:41:59.390Z,156107.03
2023-07-03T21:44:29.562Z,156088.75
2023-07-03T21:47:01.826Z,156070.44
2023-07-03T21:49:35.175Z,156063.94
2023-07-03T21:52:05.680Z,156041.78
2023-07-03T21:54:35.830Z,156001.34
2023-07-03T21:57:06.069Z,155949.09
2023-07-03T21:59:36.323Z,155909.94
2023-07-03T22:02:06.838Z,155883.88
2023-07-03T22:04:39.608Z,155893.00
2023-07-03T22:07:10.015Z,155898.22
2023-07-03T22:09:40.301Z,155877.38
2023-07-03T22:12:12.265Z,155856.50
2023-07-03T22:14:42.420Z,155859.09
2023-07-03T22:17:12.542Z,155856.50
2023-07-03T22:19:45.973Z,155855.16
2023-07-03T22:22:16.076Z,155857.81
2023-07-03T22:24:46.415Z,155814.75
2023-07-03T22:27:16.596Z,155804.31
2023-07-03T22:29:46.879Z,155789.97
2023-07-03T22:32:17.013Z,155782.16
2023-07-03T22:34:50.221Z,155765.19
2023-07-03T22:37:20.414Z,155766.47
2023-07-03T22:39:50.520Z,155778.25
2023-07-03T22:42:20.821Z,155774.31
2023-07-03T22:44:51.036Z,155696.03
2023-07-03T22:47:21.267Z,155686.94
2023-07-03T22:49:54.116Z,155693.44
2023-07-03T22:52:25.707Z,155696.03
2023-07-03T22:54:55.905Z,155702.56
2023-07-03T22:57:26.225Z,155660.84
2023-07-03T22:59:57.220Z,155651.69
2023-07-03T23:02:29.647Z,155663.47
2023-07-03T23:05:02.528Z,155689.53
2023-07-03T23:07:32.805Z,155688.22
2023-07-03T23:10:03.084Z,155669.97
2023-07-03T23:12:33.261Z,155692.16
2023-07-03T23:15:03.667Z,155683.03
2023-07-03T23:17:35.111Z,155651.69
2023-07-03T23:20:12.754Z,155634.78
2023-07-03T23:22:43.103Z,155643.91
2023-07-03T23:25:13.489Z,155663.47
2023-07-03T23:27:47.458Z,155647.81
2023-07-03T23:30:18.574Z,155621.72
2023-07-03T23:32:48.944Z,155581.31
2023-07-03T23:35:22.850Z,155589.16
2023-07-03T23:37:53.243Z,155604.78
2023-07-03T23:40:23.292Z,155620.44
2023-07-03T23:42:53.566Z,155611.28
2023-07-03T23:45:23.996Z,155555.25
2023-07-03T23:47:54.364Z,155552.69
2023-07-03T23:50:27.114Z,155572.19
2023-07-03T23:52:57.840Z,155576.09
2023-07-03T23:55:28.133Z,155560.47
2023-07-03T23:57:58.258Z,155546.09
